createdAt,value
2015-07-14T00:00:04.838Z,74317
2015-07-14T00:00:17.213Z,74324
2015-07-14T00:00:29.572Z,74325
2015-07-14T00:00:41.902Z,74320
2015-07-14T00:00:54.230Z,74324
2015-07-14T00:01:06.559Z,74327
2015-07-14T00:01:18.902Z,74328
2015-07-14T00:01:31.092Z,74326
2015-07-14T00:01:43.436Z,74322
2015-07-14T00:01:55.764Z,74321
2015-07-14T00:02:08.107Z,74319
2015-07-14T00:02:20.451Z,74323
2015-07-14T00:02:32.813Z,74317
2015-07-14T00:02:45.141Z,74317
2015-07-14T00:02:57.484Z,74318
2015-07-14T00:03:09.828Z,74315
2015-07-14T00:03:22.016Z,74314
2015-07-14T00:03:34.360Z,74317
2015-07-14T00:03:46.689Z,74311
2015-07-14T00:03:59.032Z,74316
2015-07-14T00:04:11.376Z,74318
2015-07-14T00:04:23.720Z,74308
2015-07-14T00:04:36.082Z,74310
2015-07-14T00:04:48.426Z,74309
2015-07-14T00:05:00.817Z,74307
2015-07-14T00:05:13.176Z,74317
2015-07-14T00:05:25.520Z,74316
2015-07-14T00:05:37.881Z,74315
2015-07-14T00:05:50.240Z,74316
2015-07-14T00:06:02.615Z,74311
2015-07-14T00:06:14.990Z,74320
2015-07-14T00:06:27.350Z,74319
2015-07-14T00:06:39.695Z,74305
2015-07-14T00:06:52.038Z,74315
2015-07-14T00:07:04.366Z,74315
2015-07-14T00:07:16.726Z,74318
2015-07-14T00:07:29.054Z,74321
2015-07-14T00:07:41.385Z,74314
2015-07-14T00:07:53.729Z,74312
2015-07-14T00:08:06.073Z,74312
2015-07-14T00:08:18.401Z,74310
2015-07-14T00:08:30.744Z,74307
2015-07-14T00:08:42.933Z,74297
2015-07-14T00:08:55.261Z,74297
2015-07-14T00:09:07.620Z,74301
2015-07-14T00:09:19.964Z,74304
2015-07-14T00:09:32.292Z,74312
2015-07-14T00:09:44.622Z,74309
2015-07-14T00:09:56.982Z,74311
2015-07-14T00:10:09.326Z,74304
2015-07-14T00:10:21.685Z,74309
2015-07-14T00:10:34.029Z,74310
2015-07-14T00:10:46.407Z,74303
2015-07-14T00:10:58.782Z,74306
2015-07-14T00:11:11.157Z,74301
2015-07-14T00:11:23.516Z,74307
2015-07-14T00:11:35.891Z,74314
2015-07-14T00:11:48.252Z,74309
2015-07-14T00:12:00.596Z,74312
2015-07-14T00:12:12.924Z,74309
2015-07-14T00:12:25.268Z,74315
2015-07-14T00:12:37.596Z,74313
2015-07-14T00:12:49.942Z,74312
2015-07-14T00:13:02.286Z,74320
2015-07-14T00:13:14.614Z,74318
2015-07-14T00:13:26.942Z,74316
2015-07-14T00:13:39.301Z,74312
2015-07-14T00:13:51.630Z,74304
2015-07-14T00:14:03.974Z,74301
2015-07-14T00:14:16.318Z,74300
2015-07-14T00:14:28.662Z,74301
2015-07-14T00:14:41.005Z,74304
2015-07-14T00:14:53.336Z,74301
2015-07-14T00:15:05.679Z,74307
2015-07-14T00:15:17.304Z,74304
2015-07-14T00:15:29.648Z,74307
2015-07-14T00:15:41.992Z,74315
2015-07-14T00:15:54.353Z,74301
2015-07-14T00:16:06.713Z,74309
2015-07-14T00:16:19.088Z,74306
2015-07-14T00:16:31.463Z,74311
2015-07-14T00:16:43.822Z,74308
2015-07-14T00:16:56.183Z,74299
2015-07-14T00:17:08.574Z,74297
2015-07-14T00:17:20.933Z,74300
2015-07-14T00:17:33.152Z,74296
2015-07-14T00:17:45.496Z,74298
2015-07-14T00:17:57.842Z,74294
2015-07-14T00:18:10.170Z,74303
2015-07-14T00:18:22.498Z,74300
2015-07-14T00:18:34.857Z,74305
2015-07-14T00:18:47.185Z,74301
2015-07-14T00:18:59.516Z,74299
2015-07-14T00:19:11.860Z,74306
2015-07-14T00:19:24.204Z,74300
2015-07-14T00:19:36.548Z,74306
2015-07-14T00:19:48.891Z,74308
2015-07-14T00:20:01.236Z,74304
2015-07-14T00:20:13.580Z,74311
2015-07-14T00:20:25.924Z,74304
2015-07-14T00:20:38.267Z,74300
2015-07-14T00:20:50.611Z,74303
2015-07-14T00:21:02.958Z,74301
2015-07-14T00:21:15.333Z,74304
2015-07-14T00:21:27.677Z,74307
2015-07-14T00:21:40.020Z,74307
2015-07-14T00:21:52.364Z,74306
2015-07-14T00:22:04.741Z,74304
2015-07-14T00:22:17.116Z,74300
2015-07-14T00:22:29.476Z,74299
2015-07-14T00:22:41.851Z,74296
2015-07-14T00:22:54.210Z,74294
2015-07-14T00:23:06.430Z,74292
2015-07-14T00:23:18.633Z,74288
2015-07-14T00:23:30.977Z,74288
2015-07-14T00:23:43.305Z,74295
2015-07-14T00:23:55.633Z,74296
2015-07-14T00:24:07.994Z,74302
2015-07-14T00:24:20.338Z,74297
2015-07-14T00:24:32.666Z,74294
2015-07-14T00:24:45.010Z,74293
2015-07-14T00:24:56.635Z,74294
2015-07-14T00:25:08.965Z,74299
2015-07-14T00:25:21.293Z,74299
2015-07-14T00:25:33.637Z,74306
2015-07-14T00:25:45.981Z,74293
2015-07-14T00:25:58.324Z,74292
2015-07-14T00:26:10.670Z,74302
2015-07-14T00:26:23.014Z,74305
2015-07-14T00:26:35.342Z,74300
2015-07-14T00:26:47.670Z,74298
2015-07-14T00:26:59.889Z,74302
2015-07-14T00:27:12.235Z,74302
2015-07-14T00:27:24.578Z,74304
2015-07-14T00:27:36.938Z,74297
2015-07-14T00:27:49.313Z,74299
2015-07-14T00:28:01.672Z,74304
2015-07-14T00:28:14.033Z,74303
2015-07-14T00:28:26.408Z,74302
2015-07-14T00:28:38.065Z,74301
2015-07-14T00:28:50.424Z,74301
2015-07-14T00:29:02.768Z,74303
2015-07-14T00:29:15.113Z,74309
2015-07-14T00:29:27.456Z,74311
2015-07-14T00:29:39.800Z,74312
2015-07-14T00:29:52.144Z,74305
2015-07-14T00:30:04.472Z,74307
2015-07-14T00:30:16.819Z,74312
2015-07-14T00:30:29.162Z,74304
2015-07-14T00:30:41.491Z,74303
2015-07-14T00:30:53.834Z,74303
2015-07-14T00:31:06.178Z,74295
2015-07-14T00:31:18.508Z,74299
2015-07-14T00:31:30.852Z,74302
2015-07-14T00:31:43.196Z,74302
2015-07-14T00:31:55.524Z,74304
2015-07-14T00:32:07.883Z,74302
2015-07-14T00:32:20.213Z,74297
2015-07-14T00:32:32.557Z,74296
2015-07-14T00:32:44.916Z,74291
2015-07-14T00:32:57.276Z,74293
2015-07-14T00:33:09.620Z,74298
2015-07-14T00:33:21.997Z,74301
2015-07-14T00:33:34.387Z,74299
2015-07-14T00:33:46.762Z,74290
2015-07-14T00:33:59.137Z,74293
2015-07-14T00:34:11.512Z,74295
2015-07-14T00:34:23.873Z,74297
2015-07-14T00:34:36.216Z,74300
2015-07-14T00:34:48.591Z,74304
2015-07-14T00:35:00.919Z,74306
2015-07-14T00:35:13.248Z,74308
2015-07-14T00:35:25.594Z,74304
2015-07-14T00:35:37.938Z,74306
2015-07-14T00:35:50.141Z,74312
2015-07-14T00:36:02.485Z,74315
2015-07-14T00:36:14.813Z,74313
2015-07-14T00:36:27.159Z,74300
2015-07-14T00:36:39.487Z,74292
2015-07-14T00:36:51.815Z,74294
2015-07-14T00:37:04.143Z,74306
2015-07-14T00:37:16.487Z,74303
2015-07-14T00:37:28.816Z,74309
2015-07-14T00:37:41.160Z,74312
2015-07-14T00:37:53.488Z,74314
2015-07-14T00:38:05.832Z,74314
2015-07-14T00:38:18.175Z,74311
2015-07-14T00:38:30.522Z,74314
2015-07-14T00:38:42.163Z,74311
2015-07-14T00:38:54.507Z,74311
2015-07-14T00:39:06.882Z,74316
2015-07-14T00:39:19.241Z,74313
2015-07-14T00:39:31.617Z,74309
2015-07-14T00:39:43.976Z,74307
2015-07-14T00:39:56.336Z,74310
2015-07-14T00:40:08.711Z,74306
2015-07-14T00:40:21.070Z,74305
2015-07-14T00:40:32.698Z,74305
2015-07-14T00:40:45.042Z,74309
2015-07-14T00:40:57.370Z,74318
2015-07-14T00:41:09.729Z,74317
2015-07-14T00:41:22.073Z,74313
2015-07-14T00:41:34.418Z,74318
2015-07-14T00:41:46.762Z,74317
2015-07-14T00:41:59.090Z,74312
2015-07-14T00:42:11.433Z,74305
2015-07-14T00:42:23.777Z,74289
2015-07-14T00:42:36.108Z,74295
2015-07-14T00:42:48.452Z,74294
2015-07-14T00:43:00.811Z,74297
2015-07-14T00:43:13.155Z,74301
2015-07-14T00:43:25.499Z,74304
2015-07-14T00:43:37.845Z,74304
2015-07-14T00:43:50.188Z,74305
2015-07-14T00:44:02.548Z,74309
2015-07-14T00:44:14.892Z,74308
2015-07-14T00:44:27.235Z,74309
2015-07-14T00:44:39.597Z,74310
2015-07-14T00:44:51.972Z,74311
2015-07-14T00:45:04.347Z,74315
2015-07-14T00:45:16.706Z,74316
2015-07-14T00:45:29.050Z,74314
2015-07-14T00:45:41.411Z,74311
2015-07-14T00:45:53.771Z,74315
2015-07-14T00:46:06.146Z,74309
2015-07-14T00:46:17.786Z,74315
2015-07-14T00:46:30.114Z,74312
2015-07-14T00:46:42.459Z,74315
2015-07-14T00:46:54.787Z,74312
2015-07-14T00:47:07.131Z,74310
2015-07-14T00:47:19.475Z,74310
2015-07-14T00:47:31.818Z,74308
2015-07-14T00:47:44.165Z,74312
2015-07-14T00:47:56.509Z,74309
2015-07-14T00:48:08.853Z,74309
2015-07-14T00:48:21.181Z,74308
2015-07-14T00:48:32.806Z,74303
2015-07-14T00:48:45.135Z,74307
2015-07-14T00:48:57.463Z,74297
2015-07-14T00:49:09.807Z,74294
2015-07-14T00:49:22.151Z,74304
2015-07-14T00:49:34.494Z,74307
2015-07-14T00:49:46.887Z,74309
2015-07-14T00:49:59.231Z,74301
2015-07-14T00:50:11.574Z,74301
2015-07-14T00:50:23.949Z,74303
2015-07-14T00:50:36.324Z,74304
2015-07-14T00:50:48.687Z,74307
2015-07-14T00:51:01.062Z,74307
2015-07-14T00:51:13.421Z,74306
2015-07-14T00:51:25.781Z,74304
2015-07-14T00:51:38.140Z,74306
2015-07-14T00:51:50.517Z,74305
2015-07-14T00:52:02.861Z,74308
2015-07-14T00:52:15.189Z,74313
2015-07-14T00:52:27.517Z,74315
2015-07-14T00:52:39.861Z,74317
2015-07-14T00:52:52.205Z,74316
2015-07-14T00:53:04.534Z,74312
2015-07-14T00:53:16.893Z,74310
2015-07-14T00:53:29.221Z,74312
2015-07-14T00:53:41.565Z,74308
2015-07-14T00:53:53.911Z,74308
2015-07-14T00:54:06.254Z,74297
2015-07-14T00:54:18.582Z,74286
2015-07-14T00:54:30.942Z,74289
2015-07-14T00:54:43.301Z,74298
2015-07-14T00:54:55.647Z,74308
2015-07-14T00:55:07.975Z,74307
2015-07-14T00:55:20.334Z,74307
2015-07-14T00:55:32.694Z,74312
2015-07-14T00:55:45.038Z,74315
2015-07-14T00:55:57.400Z,74313
2015-07-14T00:56:09.759Z,74311
2015-07-14T00:56:22.134Z,74311
2015-07-14T00:56:34.509Z,74309
2015-07-14T00:56:46.900Z,74309
2015-07-14T00:56:59.260Z,74306
2015-07-14T00:57:11.635Z,74305
2015-07-14T00:57:24.010Z,74295
2015-07-14T00:57:36.354Z,74293
2015-07-14T00:57:48.698Z,74292
2015-07-14T00:58:01.028Z,74292
2015-07-14T00:58:13.372Z,74298
2015-07-14T00:58:25.700Z,74303
2015-07-14T00:58:38.059Z,74312
2015-07-14T00:58:50.387Z,74315
2015-07-14T00:59:02.733Z,74309
2015-07-14T00:59:15.077Z,74296
2015-07-14T00:59:27.405Z,74293
2015-07-14T00:59:39.749Z,74294
2015-07-14T00:59:52.092Z,74291
2015-07-14T01:00:04.438Z,74291
2015-07-14T01:00:16.079Z,74292
2015-07-14T01:00:28.688Z,74298
2015-07-14T01:00:41.032Z,74301
2015-07-14T01:00:53.376Z,74308
2015-07-14T01:01:05.003Z,74309
2015-07-14T01:01:17.346Z,74296
2015-07-14T01:01:29.690Z,74296
2015-07-14T01:01:42.034Z,74306
2015-07-14T01:01:54.409Z,74293
2015-07-14T01:02:06.817Z,74291
2015-07-14T01:02:19.192Z,74288
2015-07-14T01:02:31.552Z,74292
2015-07-14T01:02:43.911Z,74302
2015-07-14T01:02:55.567Z,74308
2015-07-14T01:03:07.929Z,74306
2015-07-14T01:03:20.288Z,74308
2015-07-14T01:03:32.632Z,74309
2015-07-14T01:03:44.960Z,74314
2015-07-14T01:03:57.304Z,74312
2015-07-14T01:04:09.649Z,74310
2015-07-14T01:04:21.977Z,74314
2015-07-14T01:04:34.321Z,74320
2015-07-14T01:04:46.665Z,74316
2015-07-14T01:04:58.993Z,74316
2015-07-14T01:05:11.339Z,74316
2015-07-14T01:05:23.511Z,74312
2015-07-14T01:05:35.136Z,74311
2015-07-14T01:05:47.479Z,74305
2015-07-14T01:05:59.667Z,74307
2015-07-14T01:06:12.013Z,74313
2015-07-14T01:06:24.356Z,74309
2015-07-14T01:06:36.700Z,74304
2015-07-14T01:06:49.044Z,74306
2015-07-14T01:07:01.403Z,74308
2015-07-14T01:07:13.811Z,74310
2015-07-14T01:07:26.154Z,74310
2015-07-14T01:07:38.529Z,74300
2015-07-14T01:07:50.904Z,74302
2015-07-14T01:08:02.561Z,74310
2015-07-14T01:08:14.923Z,74308
2015-07-14T01:08:27.282Z,74308
2015-07-14T01:08:39.642Z,74305
2015-07-14T01:08:52.017Z,74305
2015-07-14T01:09:04.360Z,74309
2015-07-14T01:09:16.706Z,74308
2015-07-14T01:09:29.050Z,74307
2015-07-14T01:09:41.378Z,74310
2015-07-14T01:09:53.722Z,74310
2015-07-14T01:10:06.050Z,74310
2015-07-14T01:10:18.396Z,74314
2015-07-14T01:10:30.739Z,74319
2015-07-14T01:10:43.083Z,74313
2015-07-14T01:10:55.427Z,74306
2015-07-14T01:11:07.771Z,74308
2015-07-14T01:11:20.116Z,74309
2015-07-14T01:11:32.476Z,74312
2015-07-14T01:11:44.804Z,74310
2015-07-14T01:11:57.163Z,74297
2015-07-14T01:12:08.788Z,74287
2015-07-14T01:12:21.118Z,74293
2015-07-14T01:12:33.447Z,74291
2015-07-14T01:12:45.790Z,74293
2015-07-14T01:12:58.134Z,74294
2015-07-14T01:13:10.478Z,74296
2015-07-14T01:13:22.839Z,74303
2015-07-14T01:13:35.183Z,74311
2015-07-14T01:13:47.558Z,74313
2015-07-14T01:13:59.933Z,74313
2015-07-14T01:14:12.292Z,74308
2015-07-14T01:14:24.668Z,74300
2015-07-14T01:14:37.028Z,74284
2015-07-14T01:14:49.387Z,74284
2015-07-14T01:15:01.731Z,74289
2015-07-14T01:15:14.059Z,74288
2015-07-14T01:15:26.405Z,74291
2015-07-14T01:15:38.733Z,74290
2015-07-14T01:15:51.092Z,74284
2015-07-14T01:16:03.420Z,74297
2015-07-14T01:16:15.748Z,74305
2015-07-14T01:16:28.079Z,74302
2015-07-14T01:16:39.719Z,74298
2015-07-14T01:16:52.063Z,74292
2015-07-14T01:17:04.407Z,74295
2015-07-14T01:17:16.735Z,74296
2015-07-14T01:17:29.082Z,74279
2015-07-14T01:17:41.425Z,74291
2015-07-14T01:17:53.753Z,74313
2015-07-14T01:18:06.097Z,74322
2015-07-14T01:18:18.441Z,74320
2015-07-14T01:18:30.787Z,74314
2015-07-14T01:18:43.130Z,74316
2015-07-14T01:18:55.490Z,74320
2015-07-14T01:19:07.865Z,74318
2015-07-14T01:19:20.225Z,74315
2015-07-14T01:19:31.881Z,74300
2015-07-14T01:19:44.241Z,74294
2015-07-14T01:19:56.631Z,74275
2015-07-14T01:20:09.006Z,74275
2015-07-14T01:20:21.383Z,74277
2015-07-14T01:20:33.977Z,74277
2015-07-14T01:20:46.321Z,74292
2015-07-14T01:20:58.665Z,74291
2015-07-14T01:21:11.008Z,74302
2015-07-14T01:21:23.339Z,74304
2015-07-14T01:21:35.682Z,74306
2015-07-14T01:21:48.010Z,74302
2015-07-14T01:22:00.354Z,74303
2015-07-14T01:22:12.714Z,74301
2015-07-14T01:22:25.059Z,74303
2015-07-14T01:22:37.387Z,74299
2015-07-14T01:22:49.731Z,74295
2015-07-14T01:23:01.387Z,74297
2015-07-14T01:23:13.716Z,74303
2015-07-14T01:23:26.047Z,74311
2015-07-14T01:23:38.375Z,74309
2015-07-14T01:23:50.719Z,74305
2015-07-14T01:24:03.078Z,74311
2015-07-14T01:24:15.422Z,74308
2015-07-14T01:24:27.766Z,74305
2015-07-14T01:24:40.126Z,74290
2015-07-14T01:24:52.501Z,74286
2015-07-14T01:25:04.860Z,74274
2015-07-14T01:25:17.235Z,74280
2015-07-14T01:25:29.597Z,74284
2015-07-14T01:25:41.972Z,74296
2015-07-14T01:25:54.315Z,74289
2015-07-14T01:26:06.659Z,74274
2015-07-14T01:26:18.987Z,74266
2015-07-14T01:26:31.333Z,74278
2015-07-14T01:26:43.677Z,74301
2015-07-14T01:26:56.020Z,74302
2015-07-14T01:27:08.364Z,74290
2015-07-14T01:27:20.692Z,74274
2015-07-14T01:27:33.054Z,74279
2015-07-14T01:27:45.397Z,74286
2015-07-14T01:27:57.726Z,74301
2015-07-14T01:28:10.069Z,74301
2015-07-14T01:28:22.413Z,74309
2015-07-14T01:28:34.743Z,74308
2015-07-14T01:28:47.087Z,74305
2015-07-14T01:28:59.696Z,74295
2015-07-14T01:29:12.024Z,74288
2015-07-14T01:29:24.353Z,74291
2015-07-14T01:29:36.698Z,74302
2015-07-14T01:29:49.042Z,74297
2015-07-14T01:30:01.667Z,74290
2015-07-14T01:30:14.026Z,74286
2015-07-14T01:30:26.386Z,74294
2015-07-14T01:30:38.763Z,74297
2015-07-14T01:30:51.138Z,74288
2015-07-14T01:31:03.497Z,74280
2015-07-14T01:31:15.872Z,74294
2015-07-14T01:31:28.278Z,74294
2015-07-14T01:31:40.609Z,74305
2015-07-14T01:31:52.952Z,74303
2015-07-14T01:32:05.296Z,74305
2015-07-14T01:32:17.624Z,74308
2015-07-14T01:32:29.952Z,74313
2015-07-14T01:32:42.297Z,74309
2015-07-14T01:32:54.641Z,74309
2015-07-14T01:33:07.250Z,74305
2015-07-14T01:33:19.594Z,74298
2015-07-14T01:33:31.938Z,74301
2015-07-14T01:33:44.300Z,74301
2015-07-14T01:33:56.628Z,74293
2015-07-14T01:34:08.988Z,74294
2015-07-14T01:34:21.331Z,74298
2015-07-14T01:34:33.659Z,74294
2015-07-14T01:34:46.271Z,74295
2015-07-14T01:34:58.615Z,74294
2015-07-14T01:35:10.958Z,74299
2015-07-14T01:35:23.302Z,74304
2015-07-14T01:35:35.646Z,74298
2015-07-14T01:35:48.007Z,74302
2015-07-14T01:36:00.398Z,74302
2015-07-14T01:36:12.757Z,74302
2015-07-14T01:36:25.117Z,74297
2015-07-14T01:36:37.492Z,74293
2015-07-14T01:36:49.853Z,74287
2015-07-14T01:37:02.228Z,74283
2015-07-14T01:37:14.587Z,74283
2015-07-14T01:37:26.915Z,74280
2015-07-14T01:37:38.556Z,74279
2015-07-14T01:37:50.886Z,74278
2015-07-14T01:38:03.214Z,74279
2015-07-14T01:38:15.558Z,74277
2015-07-14T01:38:27.886Z,74279
2015-07-14T01:38:40.230Z,74274
2015-07-14T01:38:52.559Z,74267
2015-07-14T01:39:04.450Z,74266
2015-07-14T01:39:16.872Z,74273
2015-07-14T01:39:29.215Z,74279
2015-07-14T01:39:41.559Z,74279
2015-07-14T01:39:54.077Z,74278
2015-07-14T01:40:06.405Z,74261
2015-07-14T01:40:18.749Z,74258
2015-07-14T01:40:31.077Z,74270
2015-07-14T01:40:43.420Z,74276
2015-07-14T01:40:55.766Z,74280
2015-07-14T01:41:07.969Z,74276
2015-07-14T01:41:20.313Z,74271
2015-07-14T01:41:32.688Z,74259
2015-07-14T01:41:45.063Z,74266
2015-07-14T01:41:57.424Z,74276
2015-07-14T01:42:09.831Z,74278
2015-07-14T01:42:22.206Z,74277
2015-07-14T01:42:34.565Z,74279
2015-07-14T01:42:46.926Z,74282
2015-07-14T01:42:59.286Z,74290
2015-07-14T01:43:11.645Z,74294
2015-07-14T01:43:23.973Z,74283
2015-07-14T01:43:36.317Z,74286
2015-07-14T01:43:48.663Z,74290
2015-07-14T01:44:01.007Z,74288
2015-07-14T01:44:13.350Z,74290
2015-07-14T01:44:25.694Z,74297
2015-07-14T01:44:38.022Z,74295
2015-07-14T01:44:50.384Z,74290
2015-07-14T01:45:02.712Z,74288
2015-07-14T01:45:15.055Z,74289
2015-07-14T01:45:27.384Z,74294
2015-07-14T01:45:39.743Z,74300
2015-07-14T01:45:52.073Z,74293
2015-07-14T01:46:04.417Z,74291
2015-07-14T01:46:16.745Z,74286
2015-07-14T01:46:29.370Z,74287
2015-07-14T01:46:41.714Z,74290
2015-07-14T01:46:54.076Z,74294
2015-07-14T01:47:06.420Z,74295
2015-07-14T01:47:18.810Z,74299
2015-07-14T01:47:31.170Z,74298
2015-07-14T01:47:43.529Z,74293
2015-07-14T01:47:55.890Z,74296
2015-07-14T01:48:08.280Z,74298
2015-07-14T01:48:20.655Z,74298
2015-07-14T01:48:33.015Z,74296
2015-07-14T01:48:45.390Z,74294
2015-07-14T01:48:57.720Z,74296
2015-07-14T01:49:10.048Z,74293
2015-07-14T01:49:22.392Z,74293
2015-07-14T01:49:34.751Z,74288
2015-07-14T01:49:46.376Z,74286
2015-07-14T01:49:58.722Z,74288
2015-07-14T01:50:11.034Z,74284
2015-07-14T01:50:23.378Z,74281
2015-07-14T01:50:35.722Z,74285
2015-07-14T01:50:48.065Z,74286
2015-07-14T01:51:00.396Z,74287
2015-07-14T01:51:12.739Z,74289
2015-07-14T01:51:25.083Z,74292
2015-07-14T01:51:37.427Z,74296
2015-07-14T01:51:49.755Z,74300
2015-07-14T01:52:01.398Z,74300
2015-07-14T01:52:13.726Z,74299
2015-07-14T01:52:26.085Z,74303
2015-07-14T01:52:38.273Z,74300
2015-07-14T01:52:50.616Z,74297
2015-07-14T01:53:02.978Z,74297
2015-07-14T01:53:15.353Z,74296
2015-07-14T01:53:27.712Z,74299
2015-07-14T01:53:40.087Z,74301
2015-07-14T01:53:52.446Z,74308
2015-07-14T01:54:04.823Z,74308
2015-07-14T01:54:17.183Z,74305
2015-07-14T01:54:29.527Z,74308
2015-07-14T01:54:41.855Z,74306
2015-07-14T01:54:54.198Z,74306
2015-07-14T01:55:06.529Z,74310
2015-07-14T01:55:18.888Z,74304
2015-07-14T01:55:31.216Z,74303
2015-07-14T01:55:43.560Z,74307
2015-07-14T01:55:55.904Z,74303
2015-07-14T01:56:08.234Z,74296
2015-07-14T01:56:20.577Z,74292
2015-07-14T01:56:32.921Z,74293
2015-07-14T01:56:45.265Z,74294
2015-07-14T01:56:57.593Z,74297
2015-07-14T01:57:09.939Z,74302
2015-07-14T01:57:22.267Z,74301
2015-07-14T01:57:34.595Z,74301
2015-07-14T01:57:46.939Z,74305
2015-07-14T01:57:59.298Z,74303
2015-07-14T01:58:11.643Z,74306
2015-07-14T01:58:23.987Z,74299
2015-07-14T01:58:36.362Z,74299
2015-07-14T01:58:48.737Z,74299
2015-07-14T01:59:00.940Z,74301
2015-07-14T01:59:13.318Z,74303
2015-07-14T01:59:25.677Z,74302
2015-07-14T01:59:38.052Z,74299
2015-07-14T01:59:50.427Z,74303
2015-07-14T02:00:02.599Z,74301
2015-07-14T02:00:14.945Z,74305
2015-07-14T02:00:27.273Z,74307
2015-07-14T02:00:39.601Z,74301
2015-07-14T02:00:51.945Z,74305
2015-07-14T02:01:04.289Z,74299
2015-07-14T02:01:16.633Z,74299
2015-07-14T02:01:28.961Z,74295
2015-07-14T02:01:41.305Z,74298
2015-07-14T02:01:53.649Z,74293
2015-07-14T02:02:05.993Z,74289
2015-07-14T02:02:18.338Z,74291
2015-07-14T02:02:30.682Z,74290
2015-07-14T02:02:43.010Z,74292
2015-07-14T02:02:55.354Z,74291
2015-07-14T02:03:07.701Z,74295
2015-07-14T02:03:20.029Z,74292
2015-07-14T02:03:32.357Z,74297
2015-07-14T02:03:44.701Z,74299
2015-07-14T02:03:57.045Z,74296
2015-07-14T02:04:09.406Z,74295
2015-07-14T02:04:21.765Z,74291
2015-07-14T02:04:34.125Z,74294
2015-07-14T02:04:46.500Z,74294
2015-07-14T02:04:58.843Z,74296
2015-07-14T02:05:11.188Z,74297
2015-07-14T02:05:23.516Z,74296
2015-07-14T02:05:35.860Z,74299
2015-07-14T02:05:48.188Z,74304
2015-07-14T02:06:00.532Z,74300
2015-07-14T02:06:12.879Z,74299
2015-07-14T02:06:25.222Z,74301
2015-07-14T02:06:37.566Z,74302
2015-07-14T02:06:49.910Z,74308
2015-07-14T02:07:02.238Z,74307
2015-07-14T02:07:14.583Z,74308
2015-07-14T02:07:26.927Z,74304
2015-07-14T02:07:39.270Z,74300
2015-07-14T02:07:51.614Z,74300
2015-07-14T02:08:03.942Z,74301
2015-07-14T02:08:16.320Z,74295
2015-07-14T02:08:28.664Z,74302
2015-07-14T02:08:41.008Z,74295
2015-07-14T02:08:53.367Z,74298
2015-07-14T02:09:05.726Z,74298
2015-07-14T02:09:18.102Z,74297
2015-07-14T02:09:29.759Z,74293
2015-07-14T02:09:42.118Z,74290
2015-07-14T02:09:54.477Z,74295
2015-07-14T02:10:06.868Z,74298
2015-07-14T02:10:19.245Z,74300
2015-07-14T02:10:31.589Z,74300
2015-07-14T02:10:43.933Z,74299
2015-07-14T02:10:56.276Z,74303
2015-07-14T02:11:08.620Z,74298
2015-07-14T02:11:20.966Z,74312
2015-07-14T02:11:33.294Z,74303
2015-07-14T02:11:45.638Z,74305
2015-07-14T02:11:57.981Z,74293
2015-07-14T02:12:10.325Z,74291
2015-07-14T02:12:22.655Z,74287
2015-07-14T02:12:34.999Z,74289
2015-07-14T02:12:47.327Z,74287
2015-07-14T02:12:59.671Z,74295
2015-07-14T02:13:12.015Z,74292
2015-07-14T02:13:24.345Z,74297
2015-07-14T02:13:36.689Z,74298
2015-07-14T02:13:49.017Z,74295
2015-07-14T02:14:01.360Z,74301
2015-07-14T02:14:13.720Z,74298
2015-07-14T02:14:26.066Z,74297
2015-07-14T02:14:38.409Z,74300
2015-07-14T02:14:50.800Z,74302
2015-07-14T02:15:03.159Z,74303
2015-07-14T02:15:15.534Z,74294
2015-07-14T02:15:27.896Z,74289
2015-07-14T02:15:40.271Z,74286
2015-07-14T02:15:52.646Z,74277
2015-07-14T02:16:04.974Z,74284
2015-07-14T02:16:17.318Z,74285
2015-07-14T02:16:29.663Z,74287
2015-07-14T02:16:41.991Z,74288
2015-07-14T02:16:54.335Z,74286
2015-07-14T02:17:06.663Z,74285
2015-07-14T02:17:19.007Z,74288
2015-07-14T02:17:31.368Z,74289
2015-07-14T02:17:43.712Z,74289
2015-07-14T02:17:56.056Z,74287
2015-07-14T02:18:08.384Z,74288
2015-07-14T02:18:20.728Z,74285
2015-07-14T02:18:33.057Z,74288
2015-07-14T02:18:45.401Z,74284
2015-07-14T02:18:57.744Z,74285
2015-07-14T02:19:10.073Z,74278
2015-07-14T02:19:22.401Z,74283
2015-07-14T02:19:34.763Z,74286
2015-07-14T02:19:47.107Z,74286
2015-07-14T02:19:59.466Z,74291
2015-07-14T02:20:11.810Z,74292
2015-07-14T02:20:24.201Z,74295
2015-07-14T02:20:36.562Z,74299
2015-07-14T02:20:48.937Z,74297
2015-07-14T02:21:01.312Z,74294
2015-07-14T02:21:13.687Z,74296
2015-07-14T02:21:26.046Z,74300
2015-07-14T02:21:38.407Z,74296
2015-07-14T02:21:50.735Z,74301
2015-07-14T02:22:03.079Z,74301
2015-07-14T02:22:15.422Z,74299
2015-07-14T02:22:27.766Z,74308
2015-07-14T02:22:40.096Z,74305
2015-07-14T02:22:52.440Z,74309
2015-07-14T02:23:04.784Z,74307
2015-07-14T02:23:17.127Z,74306
2015-07-14T02:23:29.471Z,74316
2015-07-14T02:23:41.818Z,74315
2015-07-14T02:23:54.146Z,74311
2015-07-14T02:24:06.490Z,74312
2015-07-14T02:24:18.818Z,74308
2015-07-14T02:24:31.146Z,74311
2015-07-14T02:24:43.491Z,74311
2015-07-14T02:24:55.819Z,74309
2015-07-14T02:25:08.163Z,74306
2015-07-14T02:25:20.506Z,74309
2015-07-14T02:25:32.866Z,74304
2015-07-14T02:25:45.212Z,74303
2015-07-14T02:25:57.571Z,74305
2015-07-14T02:26:09.930Z,74307
2015-07-14T02:26:22.290Z,74311
2015-07-14T02:26:34.649Z,74308
2015-07-14T02:26:47.011Z,74310
2015-07-14T02:26:59.386Z,74309
2015-07-14T02:27:11.761Z,74310
2015-07-14T02:27:24.371Z,74303
2015-07-14T02:27:36.715Z,74306
2015-07-14T02:27:49.060Z,74303
2015-07-14T02:28:01.388Z,74304
2015-07-14T02:28:13.732Z,74302
2015-07-14T02:28:26.060Z,74305
2015-07-14T02:28:38.404Z,74304
2015-07-14T02:28:50.733Z,74306
2015-07-14T02:29:03.077Z,74307
2015-07-14T02:29:15.421Z,74307
2015-07-14T02:29:27.764Z,74308
2015-07-14T02:29:40.093Z,74307
2015-07-14T02:29:52.438Z,74307
2015-07-14T02:30:04.798Z,74308
2015-07-14T02:30:17.282Z,74306
2015-07-14T02:30:29.610Z,74307
2015-07-14T02:30:41.954Z,74309
2015-07-14T02:30:54.315Z,74307
2015-07-14T02:31:06.659Z,74306
2015-07-14T02:31:19.222Z,74307
2015-07-14T02:31:31.784Z,74305
2015-07-14T02:31:44.145Z,74302
2015-07-14T02:31:56.599Z,74298
2015-07-14T02:32:09.036Z,74296
2015-07-14T02:32:21.599Z,74295
2015-07-14T02:32:35.067Z,74297
2015-07-14T02:32:49.680Z,74298
2015-07-14T02:33:04.242Z,74298
2015-07-14T02:33:16.602Z,74301
2015-07-14T02:33:28.961Z,74303
2015-07-14T02:33:41.352Z,74303
2015-07-14T02:33:53.696Z,74306
2015-07-14T02:34:06.056Z,74310
2015-07-14T02:34:18.399Z,74310
2015-07-14T02:34:30.743Z,74303
2015-07-14T02:34:43.087Z,74310
2015-07-14T02:34:55.776Z,74307
2015-07-14T02:35:08.167Z,74307
2015-07-14T02:35:20.433Z,74299
2015-07-14T02:35:32.792Z,74301
2015-07-14T02:35:45.261Z,74306
2015-07-14T02:35:57.607Z,74304
2015-07-14T02:36:09.950Z,74305
2015-07-14T02:36:22.294Z,74303
2015-07-14T02:36:34.638Z,74301
2015-07-14T02:36:46.997Z,74305
2015-07-14T02:36:59.343Z,74307
2015-07-14T02:37:11.702Z,74308
2015-07-14T02:37:24.234Z,74304
2015-07-14T02:37:36.609Z,74308
2015-07-14T02:37:48.986Z,74306
2015-07-14T02:38:01.361Z,74306
2015-07-14T02:38:14.204Z,74310
2015-07-14T02:38:26.579Z,74311
2015-07-14T02:38:38.970Z,74305
2015-07-14T02:38:51.581Z,74305